createdAt,value
2023-02-06T00:01:42.774Z,100714.00
2023-02-06T00:04:10.798Z,100700.28
2023-02-06T00:06:38.714Z,100700.53
2023-02-06T00:09:07.066Z,100704.63
2023-02-06T00:11:35.122Z,100722.63
2023-02-06T00:14:03.337Z,100720.72
2023-02-06T00:16:34.236Z,100723.28
2023-02-06T00:19:02.572Z,100728.66
2023-02-06T00:21:31.125Z,100723.63
2023-02-06T00:24:01.134Z,100726.25
2023-02-06T00:26:31.226Z,100727.63
2023-02-06T00:28:59.123Z,100728.41
2023-02-06T00:31:27.019Z,100725.75
2023-02-06T00:33:55.039Z,100724.69
2023-02-06T00:36:22.959Z,100730.06
2023-02-06T00:38:52.624Z,100729.66
2023-02-06T00:41:21.636Z,100728.63
2023-02-06T00:43:52.137Z,100734.34
2023-02-06T00:46:20.710Z,100735.19
2023-02-06T00:48:48.567Z,100745.25
2023-02-06T00:51:16.407Z,100744.59
2023-02-06T00:53:44.469Z,100741.56
2023-02-06T00:56:12.370Z,100755.91
2023-02-06T00:58:40.210Z,100752.47
2023-02-06T01:01:08.340Z,100750.47
2023-02-06T01:03:36.176Z,100738.34
2023-02-06T01:06:04.071Z,100748.81
2023-02-06T01:08:32.029Z,100743.13
2023-02-06T01:11:00.657Z,100739.69
2023-02-06T01:13:28.717Z,100732.63
2023-02-06T01:15:56.622Z,100723.94
2023-02-06T01:18:24.550Z,100727.13
2023-02-06T01:20:52.350Z,100727.16
2023-02-06T01:23:20.221Z,100742.56
2023-02-06T01:25:48.058Z,100734.53
2023-02-06T01:28:17.499Z,100742.16
2023-02-06T01:30:45.628Z,100739.31
2023-02-06T01:33:13.478Z,100739.78
2023-02-06T01:35:41.301Z,100751.88
2023-02-06T01:38:09.234Z,100740.06
2023-02-06T01:40:37.062Z,100734.88
2023-02-06T01:43:16.008Z,100729.38
2023-02-06T01:45:46.061Z,100729.63
2023-02-06T01:48:19.311Z,100720.91
2023-02-06T01:50:54.288Z,100724.56
2023-02-06T01:53:24.298Z,100731.75
2023-02-06T01:55:55.158Z,100743.06
2023-02-06T01:58:32.522Z,100735.38
2023-02-06T02:01:02.020Z,100724.38
2023-02-06T02:03:32.537Z,100724.16
2023-02-06T02:06:07.026Z,100722.47
2023-02-06T02:08:40.854Z,100721.63
2023-02-06T02:11:12.559Z,100725.13
2023-02-06T02:13:40.672Z,100722.91
2023-02-06T02:16:46.402Z,100718.31
2023-02-06T02:19:51.553Z,100713.34
2023-02-06T02:22:50.163Z,100719.69
2023-02-06T02:25:55.419Z,100716.34
2023-02-06T02:28:29.247Z,100731.28
2023-02-06T02:31:09.659Z,100728.63
2023-02-06T02:33:49.634Z,100723.47
2023-02-06T02:36:42.513Z,100723.19
2023-02-06T02:39:44.476Z,100722.72
2023-02-06T02:42:22.851Z,100718.09
2023-02-06T02:44:57.415Z,100712.81
2023-02-06T02:47:30.822Z,100705.09
2023-02-06T02:50:00.950Z,100716.38
2023-02-06T02:52:29.158Z,100725.44
2023-02-06T02:54:56.992Z,100734.91
2023-02-06T02:57:29.271Z,100727.63
2023-02-06T03:00:00.069Z,100738.38
2023-02-06T03:02:39.277Z,100725.84
2023-02-06T03:05:12.167Z,100729.84
2023-02-06T03:08:23.022Z,100738.91
2023-02-06T03:11:16.316Z,100735.53
2023-02-06T03:14:06.076Z,100740.84
2023-02-06T03:16:42.635Z,100743.25
2023-02-06T03:19:24.553Z,100737.09
2023-02-06T03:21:52.380Z,100743.09
2023-02-06T03:24:26.623Z,100741.81
2023-02-06T03:27:02.197Z,100754.06
2023-02-06T03:29:34.291Z,100760.88
2023-02-06T03:32:16.566Z,100757.97
2023-02-06T03:34:56.037Z,100754.41
2023-02-06T03:37:25.879Z,100756.75
2023-02-06T03:39:55.472Z,100761.63
2023-02-06T03:42:25.111Z,100764.63
2023-02-06T03:45:08.218Z,100751.59
2023-02-06T03:47:38.727Z,100752.59
2023-02-06T03:50:09.901Z,100747.81
2023-02-06T03:52:43.041Z,100753.75
2023-02-06T03:55:15.212Z,100752.97
2023-02-06T03:57:47.963Z,100760.34
2023-02-06T04:00:16.438Z,100757.44
2023-02-06T04:02:47.595Z,100743.09
2023-02-06T04:05:17.374Z,100746.22
2023-02-06T04:07:45.321Z,100741.34
2023-02-06T04:10:13.217Z,100739.66
2023-02-06T04:12:41.287Z,100742.44
2023-02-06T04:15:09.379Z,100746.78
2023-02-06T04:17:53.707Z,100750.69
2023-02-06T04:20:26.705Z,100749.59
2023-02-06T04:22:54.505Z,100748.72
2023-02-06T04:25:22.374Z,100753.38
2023-02-06T04:27:50.353Z,100739.66
2023-02-06T04:30:18.779Z,100739.47
2023-02-06T04:32:46.818Z,100744.31
2023-02-06T04:35:14.659Z,100729.53
2023-02-06T04:37:42.460Z,100720.47
2023-02-06T04:40:11.044Z,100735.44
2023-02-06T04:42:38.966Z,100724.78
2023-02-06T04:45:07.324Z,100715.94
2023-02-06T04:47:35.219Z,100729.16
2023-02-06T04:50:04.149Z,100723.22
2023-02-06T04:52:32.046Z,100720.59
2023-02-06T04:54:59.942Z,100709.47
2023-02-06T04:57:27.960Z,100706.66
2023-02-06T04:59:55.781Z,100716.06
2023-02-06T05:02:23.735Z,100721.94
2023-02-06T05:04:51.579Z,100726.72
2023-02-06T05:07:19.480Z,100717.28
2023-02-06T05:09:47.365Z,100711.69
2023-02-06T05:12:15.226Z,100703.22
2023-02-06T05:14:43.052Z,100701.22
2023-02-06T05:17:10.946Z,100704.88
2023-02-06T05:19:38.822Z,100703.97
2023-02-06T05:22:06.782Z,100705.25
2023-02-06T05:24:34.662Z,100705.56
2023-02-06T05:27:02.465Z,100701.00
2023-02-06T05:29:30.384Z,100717.00
2023-02-06T05:31:58.462Z,100708.84
2023-02-06T05:34:26.470Z,100701.88
2023-02-06T05:36:54.370Z,100698.47
2023-02-06T05:39:22.406Z,100705.53
2023-02-06T05:41:50.305Z,100699.06
2023-02-06T05:44:18.186Z,100700.66
2023-02-06T05:46:48.418Z,100695.59
2023-02-06T05:49:16.618Z,100696.94
2023-02-06T05:51:44.576Z,100703.91
2023-02-06T05:54:13.181Z,100704.13
2023-02-06T05:56:41.251Z,100702.38
2023-02-06T05:59:09.273Z,100704.28
2023-02-06T06:01:37.181Z,100706.16
2023-02-06T06:04:05.338Z,100706.28
2023-02-06T06:06:33.320Z,100705.38
2023-02-06T06:09:01.402Z,100706.84
2023-02-06T06:11:30.252Z,100712.69
2023-02-06T06:13:58.126Z,100698.09
2023-02-06T06:16:26.080Z,100705.31
2023-02-06T06:18:53.984Z,100694.13
2023-02-06T06:21:23.083Z,100699.38
2023-02-06T06:23:51.036Z,100709.47
2023-02-06T06:26:19.924Z,100715.16
2023-02-06T06:28:48.260Z,100712.53
2023-02-06T06:31:16.500Z,100713.91
2023-02-06T06:33:44.714Z,100712.84
2023-02-06T06:36:14.595Z,100711.59
2023-02-06T06:38:42.629Z,100718.16
2023-02-06T06:41:10.676Z,100718.16
2023-02-06T06:43:39.434Z,100715.81
2023-02-06T06:46:10.742Z,100712.75
2023-02-06T06:48:38.666Z,100710.75
2023-02-06T06:51:06.821Z,100713.06
2023-02-06T06:53:34.842Z,100708.06
2023-02-06T06:56:07.932Z,100704.75
2023-02-06T06:58:36.650Z,100708.31
2023-02-06T07:01:05.187Z,100707.31
2023-02-06T07:03:33.070Z,100698.91
2023-02-06T07:06:01.174Z,100701.28
2023-02-06T07:08:30.101Z,100699.16
2023-02-06T07:10:58.279Z,100698.91
2023-02-06T07:13:26.200Z,100701.59
2023-02-06T07:15:54.090Z,100704.47
2023-02-06T07:18:22.221Z,100709.91
2023-02-06T07:20:51.416Z,100708.44
2023-02-06T07:23:19.315Z,100707.38
2023-02-06T07:25:47.186Z,100708.13
2023-02-06T07:28:15.265Z,100710.66
2023-02-06T07:30:43.254Z,100709.22
2023-02-06T07:33:11.200Z,100700.09
2023-02-06T07:35:39.217Z,100697.72
2023-02-06T07:38:07.103Z,100691.41
2023-02-06T07:40:44.719Z,100685.06
2023-02-06T07:43:13.847Z,100684.84
2023-02-06T07:45:41.963Z,100695.47
2023-02-06T07:48:09.921Z,100702.44
2023-02-06T07:50:38.094Z,100697.03
2023-02-06T07:53:06.247Z,100695.59
2023-02-06T07:55:37.003Z,100693.63
2023-02-06T07:58:05.057Z,100688.22
2023-02-06T08:00:33.169Z,100695.56
2023-02-06T08:03:01.037Z,100706.63
2023-02-06T08:05:28.888Z,100704.72
2023-02-06T08:07:56.916Z,100704.63
2023-02-06T08:10:25.638Z,100706.31
2023-02-06T08:12:53.574Z,100692.16
2023-02-06T08:15:21.416Z,100700.06
2023-02-06T08:17:49.304Z,100703.59
2023-02-06T08:20:17.321Z,100715.38
2023-02-06T08:22:45.190Z,100716.09
2023-02-06T08:25:13.117Z,100713.19
2023-02-06T08:27:41.165Z,100718.59
2023-02-06T08:30:09.564Z,100713.03
2023-02-06T08:32:37.477Z,100709.34
2023-02-06T08:35:05.859Z,100707.91
2023-02-06T08:37:33.892Z,100703.81
2023-02-06T08:40:01.896Z,100701.53
2023-02-06T08:42:29.796Z,100703.41
2023-02-06T08:44:57.779Z,100711.69
2023-02-06T08:47:25.609Z,100708.78
2023-02-06T08:49:54.656Z,100716.44
2023-02-06T08:52:23.372Z,100717.06
2023-02-06T08:54:52.125Z,100717.44
2023-02-06T08:57:20.349Z,100712.53
2023-02-06T08:59:49.678Z,100711.31
2023-02-06T09:02:17.599Z,100714.00
2023-02-06T09:04:45.613Z,100711.94
2023-02-06T09:07:15.692Z,100710.09
2023-02-06T09:09:44.889Z,100710.91
2023-02-06T09:12:12.746Z,100717.94
2023-02-06T09:14:40.633Z,100720.88
2023-02-06T09:17:08.607Z,100713.59
2023-02-06T09:19:36.532Z,100715.91
2023-02-06T09:22:06.345Z,100719.63
2023-02-06T09:24:35.062Z,100716.69
2023-02-06T09:27:02.937Z,100719.22
2023-02-06T09:29:34.170Z,100723.75
2023-02-06T09:32:02.348Z,100727.06
2023-02-06T09:34:30.342Z,100728.31
2023-02-06T09:36:58.497Z,100721.47
2023-02-06T09:39:26.790Z,100726.44
2023-02-06T09:42:19.633Z,100720.38
2023-02-06T09:44:51.479Z,100722.25
2023-02-06T09:47:32.355Z,100718.50
2023-02-06T09:50:40.181Z,100711.31
2023-02-06T09:53:16.912Z,100700.50
2023-02-06T09:55:51.739Z,100690.91
2023-02-06T09:58:47.283Z,100692.97
2023-02-06T10:01:41.171Z,100695.66
2023-02-06T10:04:42.165Z,100689.22
2023-02-06T10:07:30.574Z,100675.13
2023-02-06T10:10:18.159Z,100678.69
2023-02-06T10:13:02.308Z,100682.19
2023-02-06T10:15:46.250Z,100682.41
2023-02-06T10:18:39.666Z,100683.00
2023-02-06T10:21:32.336Z,100683.00
2023-02-06T10:24:10.751Z,100664.50
2023-02-06T10:26:40.455Z,100660.59
2023-02-06T10:29:18.347Z,100659.34
2023-02-06T10:31:57.662Z,100648.31
2023-02-06T10:34:47.243Z,100648.94
2023-02-06T10:37:36.829Z,100635.13
2023-02-06T10:40:36.103Z,100635.31
2023-02-06T10:43:22.369Z,100634.28
2023-02-06T10:46:01.861Z,100625.25
2023-02-06T10:48:54.352Z,100619.84
2023-02-06T10:51:32.027Z,100619.72
2023-02-06T10:54:14.890Z,100615.25
2023-02-06T10:56:45.079Z,100608.56
2023-02-06T10:59:35.363Z,100618.72
2023-02-06T11:02:30.769Z,100601.91
2023-02-06T11:05:25.338Z,100591.56
2023-02-06T11:07:58.478Z,100580.09
2023-02-06T11:10:26.713Z,100583.66
2023-02-06T11:13:22.926Z,100574.59
2023-02-06T11:16:01.724Z,100578.78
2023-02-06T11:18:36.437Z,100568.47
2023-02-06T11:21:05.078Z,100563.78
2023-02-06T11:23:36.550Z,100556.84
2023-02-06T11:26:12.959Z,100544.91
2023-02-06T11:28:54.279Z,100555.03
2023-02-06T11:31:40.942Z,100548.38
2023-02-06T11:34:37.471Z,100545.09
2023-02-06T11:37:27.440Z,100547.56
2023-02-06T11:40:13.978Z,100550.84
2023-02-06T11:42:41.971Z,100553.06
2023-02-06T11:45:29.162Z,100538.59
2023-02-06T11:47:57.468Z,100538.44
2023-02-06T11:50:35.326Z,100539.78
2023-02-06T11:53:18.086Z,100543.47
2023-02-06T11:55:47.017Z,100548.22
2023-02-06T11:58:14.802Z,100541.41
2023-02-06T12:01:01.010Z,100528.56
2023-02-06T12:03:33.616Z,100518.28
2023-02-06T12:06:18.134Z,100519.22
2023-02-06T12:08:48.965Z,100522.91
2023-02-06T12:11:37.217Z,100515.56
2023-02-06T12:14:11.256Z,100506.84
2023-02-06T12:16:43.398Z,100494.00
2023-02-06T12:19:19.024Z,100499.66
2023-02-06T12:21:54.817Z,100506.50
2023-02-06T12:24:22.677Z,100492.94
2023-02-06T12:26:54.834Z,100487.75
2023-02-06T12:29:33.570Z,100482.41
2023-02-06T12:32:09.928Z,100485.22
2023-02-06T12:34:52.022Z,100470.91
2023-02-06T12:37:37.814Z,100471.97
2023-02-06T12:40:24.693Z,100480.78
2023-02-06T12:43:04.021Z,100456.19
2023-02-06T12:45:50.432Z,100457.38
2023-02-06T12:48:41.496Z,100457.94
2023-02-06T12:51:45.577Z,100456.41
2023-02-06T12:54:23.576Z,100451.81
2023-02-06T12:57:05.940Z,100449.34
2023-02-06T12:59:57.178Z,100457.47
2023-02-06T13:02:50.446Z,100448.88
2023-02-06T13:05:30.187Z,100446.16
2023-02-06T13:08:06.555Z,100451.22
2023-02-06T13:10:36.801Z,100451.00
2023-02-06T13:13:05.296Z,100451.28
2023-02-06T13:15:40.514Z,100448.09
2023-02-06T13:18:50.487Z,100454.94
2023-02-06T13:21:32.233Z,100450.31
2023-02-06T13:24:03.104Z,100449.38
2023-02-06T13:26:43.115Z,100446.22
2023-02-06T13:29:41.512Z,100437.75
2023-02-06T13:32:12.560Z,100425.44
2023-02-06T13:34:43.246Z,100427.56
2023-02-06T13:37:30.062Z,100421.19
2023-02-06T13:40:21.024Z,100423.91
2023-02-06T13:43:00.440Z,100429.75
2023-02-06T13:45:40.930Z,100423.53
2023-02-06T13:48:08.965Z,100424.03
2023-02-06T13:50:51.991Z,100412.94
2023-02-06T13:53:41.018Z,100414.59
2023-02-06T13:56:20.410Z,100414.47
2023-02-06T13:58:53.800Z,100412.25
2023-02-06T14:01:31.615Z,100409.88
2023-02-06T14:04:00.105Z,100406.69
2023-02-06T14:06:44.295Z,100406.13
2023-02-06T14:09:30.580Z,100401.03
2023-02-06T14:12:35.302Z,100402.47
2023-02-06T14:15:41.073Z,100405.38
2023-02-06T14:18:39.801Z,100407.03
2023-02-06T14:21:32.424Z,100414.94
2023-02-06T14:24:30.147Z,100414.22
2023-02-06T14:27:26.311Z,100416.22
2023-02-06T14:30:03.010Z,100430.50
2023-02-06T14:32:39.985Z,100426.00
2023-02-06T14:35:32.051Z,100425.53
2023-02-06T14:38:46.426Z,100431.19
2023-02-06T14:41:15.308Z,100433.91
2023-02-06T14:43:46.244Z,100436.88
2023-02-06T14:46:17.269Z,100428.13
2023-02-06T14:48:52.188Z,100446.13
2023-02-06T14:51:26.640Z,100449.03
2023-02-06T14:54:03.992Z,100446.09
2023-02-06T14:56:37.658Z,100449.38
2023-02-06T14:59:16.872Z,100448.50
2023-02-06T15:01:48.152Z,100454.75
2023-02-06T15:04:17.138Z,100460.47
2023-02-06T15:06:51.395Z,100457.72
2023-02-06T15:09:54.645Z,100456.78
2023-02-06T15:12:26.613Z,100461.88
2023-02-06T15:15:15.479Z,100454.16
2023-02-06T15:17:43.905Z,100458.69
2023-02-06T15:20:20.789Z,100452.91
2023-02-06T15:22:49.038Z,100458.91
2023-02-06T15:25:40.656Z,100446.75
2023-02-06T15:28:18.756Z,100443.16
2023-02-06T15:30:47.285Z,100449.03
2023-02-06T15:33:22.807Z,100449.41
2023-02-06T15:35:53.693Z,100455.19
2023-02-06T15:38:24.179Z,100454.47
2023-02-06T15:41:00.437Z,100457.56
2023-02-06T15:43:29.181Z,100459.31
2023-02-06T15:46:00.210Z,100458.03
2023-02-06T15:48:43.722Z,100462.06
2023-02-06T15:51:49.222Z,100449.22
2023-02-06T15:54:23.372Z,100460.88
2023-02-06T15:56:54.812Z,100460.03
2023-02-06T15:59:25.673Z,100476.25
2023-02-06T16:01:57.086Z,100481.97
2023-02-06T16:04:39.752Z,100476.41
2023-02-06T16:07:21.799Z,100470.88
2023-02-06T16:09:54.828Z,100480.44
2023-02-06T16:12:23.061Z,100482.41
2023-02-06T16:14:59.548Z,100485.59
2023-02-06T16:17:34.104Z,100477.44
2023-02-06T16:20:05.484Z,100491.00
2023-02-06T16:22:38.342Z,100486.47
2023-02-06T16:25:25.955Z,100499.97
2023-02-06T16:27:54.058Z,100505.00
2023-02-06T16:30:34.893Z,100503.59
2023-02-06T16:33:22.121Z,100506.91
2023-02-06T16:35:50.047Z,100511.81
2023-02-06T16:38:18.188Z,100522.72
2023-02-06T16:40:46.318Z,100525.41
2023-02-06T16:43:14.214Z,100524.19
2023-02-06T16:45:42.132Z,100537.78
2023-02-06T16:48:17.228Z,100527.50
2023-02-06T16:50:47.601Z,100534.34
2023-02-06T16:53:22.056Z,100541.78
2023-02-06T16:55:50.635Z,100535.59
2023-02-06T16:58:24.154Z,100555.13
2023-02-06T17:00:52.203Z,100550.84
2023-02-06T17:03:20.097Z,100553.97
2023-02-06T17:05:49.361Z,100557.25
2023-02-06T17:08:19.990Z,100569.72
2023-02-06T17:10:48.553Z,100571.81
2023-02-06T17:13:22.136Z,100574.09
2023-02-06T17:15:53.151Z,100579.41
2023-02-06T17:18:22.979Z,100586.78
2023-02-06T17:20:53.002Z,100589.31
2023-02-06T17:23:21.098Z,100594.28
2023-02-06T17:25:50.966Z,100595.50
2023-02-06T17:28:19.968Z,100597.94
2023-02-06T17:30:49.832Z,100605.47
2023-02-06T17:33:17.841Z,100601.63
2023-02-06T17:35:46.797Z,100592.66
2023-02-06T17:38:14.918Z,100582.63
2023-02-06T17:40:42.980Z,100611.00
2023-02-06T17:43:10.872Z,100599.13
2023-02-06T17:45:39.720Z,100604.16
2023-02-06T17:48:08.318Z,100606.66
2023-02-06T17:50:38.039Z,100609.75
2023-02-06T17:53:07.144Z,100600.91
2023-02-06T17:55:35.916Z,100609.19
2023-02-06T17:58:04.756Z,100623.34
2023-02-06T18:00:33.018Z,100615.44
2023-02-06T18:03:01.130Z,100616.03
2023-02-06T18:05:29.112Z,100608.56
2023-02-06T18:07:56.974Z,100607.50
2023-02-06T18:10:25.637Z,100607.47
2023-02-06T18:12:53.656Z,100608.00
2023-02-06T18:15:21.571Z,100609.66
2023-02-06T18:17:49.602Z,100615.84
2023-02-06T18:20:17.804Z,100624.38
2023-02-06T18:22:46.690Z,100621.03
2023-02-06T18:25:15.039Z,100630.38
2023-02-06T18:27:45.671Z,100629.81
2023-02-06T18:30:15.431Z,100625.84
2023-02-06T18:32:44.085Z,100630.84
2023-02-06T18:35:12.238Z,100632.50
2023-02-06T18:37:40.221Z,100632.69
2023-02-06T18:40:08.608Z,100624.56
2023-02-06T18:42:51.839Z,100627.94
2023-02-06T18:45:21.701Z,100635.41
2023-02-06T18:47:51.471Z,100638.31
2023-02-06T18:50:21.978Z,100640.81
2023-02-06T18:52:50.624Z,100639.94
2023-02-06T18:55:19.608Z,100652.00
2023-02-06T18:57:47.596Z,100648.25
2023-02-06T19:00:19.136Z,100636.69
2023-02-06T19:02:47.324Z,100650.56
2023-02-06T19:05:16.020Z,100656.41
2023-02-06T19:07:48.371Z,100663.66
2023-02-06T19:10:16.888Z,100658.88
2023-02-06T19:12:45.096Z,100669.25
2023-02-06T19:15:14.926Z,100664.47
2023-02-06T19:17:42.961Z,100668.81
2023-02-06T19:20:11.725Z,100660.94
2023-02-06T19:22:39.646Z,100654.09
2023-02-06T19:25:11.372Z,100658.66
2023-02-06T19:27:40.082Z,100657.00
2023-02-06T19:30:08.503Z,100659.47
2023-02-06T19:32:36.569Z,100666.34
2023-02-06T19:35:04.856Z,100654.94
2023-02-06T19:37:32.811Z,100645.00
2023-02-06T19:40:00.736Z,100655.19
2023-02-06T19:42:28.620Z,100665.13
2023-02-06T19:44:56.454Z,100661.38
2023-02-06T19:47:24.446Z,100664.28
2023-02-06T19:49:52.869Z,100671.75
2023-02-06T19:52:21.123Z,100669.06
2023-02-06T19:54:49.023Z,100678.59
2023-02-06T19:57:19.337Z,100680.25
2023-02-06T19:59:47.257Z,100673.00
2023-02-06T20:02:15.764Z,100664.50
2023-02-06T20:04:45.248Z,100693.91
2023-02-06T20:07:13.310Z,100697.63
2023-02-06T20:09:42.311Z,100707.00
2023-02-06T20:12:12.423Z,100704.28
2023-02-06T20:14:40.323Z,100711.31
2023-02-06T20:17:08.533Z,100714.22
2023-02-06T20:19:36.560Z,100712.16
2023-02-06T20:22:05.259Z,100717.31
2023-02-06T20:24:33.285Z,100691.84
2023-02-06T20:27:07.227Z,100703.47
2023-02-06T20:29:38.351Z,100686.25
2023-02-06T20:32:07.254Z,100684.16
2023-02-06T20:34:35.611Z,100669.91
2023-02-06T20:37:04.390Z,100666.38
2023-02-06T20:39:32.760Z,100668.44
2023-02-06T20:42:00.873Z,100659.31
2023-02-06T20:44:29.724Z,100665.53
2023-02-06T20:46:57.679Z,100678.78
2023-02-06T20:49:27.586Z,100668.63
2023-02-06T20:51:55.642Z,100673.16
2023-02-06T20:54:25.916Z,100679.16
2023-02-06T20:56:54.036Z,100685.16
2023-02-06T20:59:22.685Z,100695.50
2023-02-06T21:01:50.626Z,100695.75
2023-02-06T21:04:19.400Z,100694.72
2023-02-06T21:06:50.376Z,100683.94
2023-02-06T21:09:19.290Z,100668.22
2023-02-06T21:11:48.782Z,100680.84
2023-02-06T21:14:17.665Z,100680.84
2023-02-06T21:16:45.938Z,100674.59
2023-02-06T21:19:16.809Z,100669.63
2023-02-06T21:21:46.340Z,100663.44
2023-02-06T21:24:15.904Z,100677.69
2023-02-06T21:26:43.951Z,100665.47
2023-02-06T21:29:14.065Z,100674.81
2023-02-06T21:31:42.844Z,100673.13
2023-02-06T21:34:18.010Z,100682.66
2023-02-06T21:36:46.120Z,100680.13
2023-02-06T21:39:21.881Z,100675.19
2023-02-06T21:41:51.941Z,100673.13
2023-02-06T21:44:21.534Z,100677.84
2023-02-06T21:46:50.047Z,100686.19
2023-02-06T21:49:18.674Z,100693.41
2023-02-06T21:51:46.610Z,100695.03
2023-02-06T21:54:14.627Z,100702.72
2023-02-06T21:56:42.922Z,100708.34
2023-02-06T21:59:12.108Z,100705.44
2023-02-06T22:01:41.254Z,100706.25
2023-02-06T22:04:11.339Z,100708.50
2023-02-06T22:06:40.733Z,100711.59
2023-02-06T22:09:15.193Z,100706.84
2023-02-06T22:11:45.312Z,100717.00
2023-02-06T22:14:15.980Z,100715.34
2023-02-06T22:16:46.896Z,100720.72
2023-02-06T22:19:16.152Z,100722.13
2023-02-06T22:21:44.817Z,100714.69
2023-02-06T22:24:12.783Z,100715.47
2023-02-06T22:26:41.503Z,100718.59
2023-02-06T22:29:15.238Z,100728.47
2023-02-06T22:31:44.129Z,100729.13
2023-02-06T22:34:20.569Z,100743.66
2023-02-06T22:36:50.934Z,100759.19
2023-02-06T22:39:19.604Z,100750.47
2023-02-06T22:41:47.778Z,100766.97
2023-02-06T22:44:17.562Z,100764.09
2023-02-06T22:46:48.383Z,100769.69
2023-02-06T22:49:16.363Z,100771.78
2023-02-06T22:51:44.908Z,100768.88
2023-02-06T22:54:14.291Z,100780.63
2023-02-06T22:56:43.603Z,100769.94
2023-02-06T22:59:16.964Z,100775.75
2023-02-06T23:01:54.381Z,100775.38
2023-02-06T23:04:25.111Z,100777.16
2023-02-06T23:06:54.158Z,100781.28
2023-02-06T23:09:25.249Z,100780.66
2023-02-06T23:11:54.157Z,100775.88
2023-02-06T23:14:22.194Z,100780.78
2023-02-06T23:16:50.866Z,100787.31
2023-02-06T23:19:19.580Z,100797.19
2023-02-06T23:21:49.238Z,100799.91
2023-02-06T23:24:17.644Z,100811.56
2023-02-06T23:26:49.174Z,100807.59
2023-02-06T23:29:19.203Z,100806.16
2023-02-06T23:31:48.121Z,100795.59
2023-02-06T23:34:17.581Z,100799.16
2023-02-06T23:36:46.340Z,100786.69
2023-02-06T23:39:14.272Z,100797.03
2023-02-06T23:41:42.281Z,100791.19
2023-02-06T23:44:10.834Z,100794.06
2023-02-06T23:46:39.854Z,100798.59
2023-02-06T23:49:08.780Z,100798.69
2023-02-06T23:51:38.198Z,100803.69
2023-02-06T23:54:07.643Z,100799.72
2023-02-06T23:56:36.440Z,100804.50
2023-02-06T23:59:05.683Z,100808.53
